createdAt,value
2018-06-01T00:02:12.919Z,24.30
2018-06-01T00:07:15.397Z,24.20
2018-06-01T00:12:17.875Z,24.20
2018-06-01T00:17:20.368Z,24.20
2018-06-01T00:22:22.848Z,24.10
2018-06-01T00:27:25.333Z,24.10
2018-06-01T00:32:27.841Z,24.10
2018-06-01T00:37:30.325Z,24.00
2018-06-01T00:42:32.860Z,24.00
2018-06-01T00:47:35.297Z,24.00
2018-06-01T00:52:37.802Z,23.90
2018-06-01T00:57:40.292Z,23.90
2018-06-01T01:02:42.799Z,23.90
2018-06-01T01:07:45.288Z,23.90
2018-06-01T01:12:47.780Z,23.90
2018-06-01T01:17:50.301Z,23.80
2018-06-01T01:22:52.784Z,23.80
2018-06-01T01:27:55.264Z,23.80
2018-06-01T01:32:57.745Z,23.80
2018-06-01T01:38:00.253Z,23.80
2018-06-01T01:43:02.741Z,23.70
2018-06-01T01:48:05.224Z,23.70
2018-06-01T01:53:07.696Z,23.70
2018-06-01T01:58:10.181Z,23.70
2018-06-01T02:03:13.432Z,23.60
2018-06-01T02:08:15.943Z,23.60
2018-06-01T02:13:18.420Z,23.60
2018-06-01T02:18:20.900Z,23.50
2018-06-01T02:23:23.404Z,23.50
2018-06-01T02:28:25.892Z,23.50
2018-06-01T02:33:28.372Z,23.50
2018-06-01T02:38:30.852Z,23.50
2018-06-01T02:43:33.335Z,23.40
2018-06-01T02:48:36.605Z,23.40
2018-06-01T02:53:39.102Z,23.40
2018-06-01T02:58:41.579Z,23.40
2018-06-01T03:03:44.060Z,23.30
2018-06-01T03:08:46.553Z,23.30
2018-06-01T03:13:49.040Z,23.30
2018-06-01T03:18:51.524Z,23.30
2018-06-01T03:23:54.008Z,23.20
2018-06-01T03:28:56.488Z,23.20
2018-06-01T03:33:59.761Z,23.20
2018-06-01T03:39:02.244Z,23.20
2018-06-01T03:44:04.723Z,23.20
2018-06-01T03:49:07.216Z,23.10
2018-06-01T03:54:09.715Z,23.10
2018-06-01T03:59:12.196Z,23.10
2018-06-01T04:04:14.680Z,23.10
2018-06-01T04:09:17.166Z,23.10
2018-06-01T04:14:19.656Z,23.00
2018-06-01T04:19:22.148Z,23.00
2018-06-01T04:24:24.645Z,23.00
2018-06-01T04:29:27.990Z,23.00
2018-06-01T04:34:30.476Z,23.00
2018-06-01T04:39:32.964Z,23.00
2018-06-01T04:44:35.456Z,22.90
2018-06-01T04:49:37.952Z,23.00
2018-06-01T04:54:40.443Z,23.00
2018-06-01T04:59:42.960Z,23.00
2018-06-01T05:04:45.453Z,23.00
2018-06-01T05:09:47.958Z,23.00
2018-06-01T05:14:50.475Z,22.80
2018-06-01T05:19:53.740Z,23.20
2018-06-01T05:24:56.253Z,23.10
2018-06-01T05:29:58.744Z,23.20
2018-06-01T05:35:01.264Z,23.20
2018-06-01T05:40:04.525Z,23.20
2018-06-01T05:45:07.017Z,23.10
2018-06-01T05:50:10.319Z,23.20
2018-06-01T05:55:12.807Z,23.20
2018-06-01T06:00:15.327Z,23.20
2018-06-01T06:05:17.824Z,23.20
2018-06-01T06:10:20.321Z,23.20
2018-06-01T06:15:22.812Z,23.20
2018-06-01T06:20:25.711Z,23.20
2018-06-01T06:25:28.235Z,23.20
2018-06-01T06:30:30.709Z,23.20
2018-06-01T06:35:33.217Z,23.30
2018-06-01T06:40:35.709Z,23.30
2018-06-01T06:45:38.218Z,23.30
2018-06-01T06:50:41.490Z,23.30
2018-06-01T06:55:44.000Z,23.30
2018-06-01T07:00:46.498Z,23.30
2018-06-01T07:05:48.979Z,23.30
2018-06-01T07:10:51.468Z,23.30
2018-06-01T07:15:53.958Z,23.40
2018-06-01T07:20:56.453Z,23.40
2018-06-01T07:25:58.968Z,23.30
2018-06-01T07:31:02.446Z,23.30
2018-06-01T07:36:04.928Z,23.30
2018-06-01T07:41:07.416Z,23.20
2018-06-01T07:46:09.916Z,23.20
2018-06-01T07:51:12.416Z,23.20
2018-06-01T07:56:14.928Z,23.20
2018-06-01T08:01:17.444Z,23.10
2018-06-01T08:06:19.928Z,23.10
2018-06-01T08:11:22.447Z,23.10
2018-06-01T08:16:24.932Z,23.10
2018-06-01T08:21:28.186Z,23.00
2018-06-01T08:26:30.685Z,22.90
2018-06-01T08:31:33.175Z,22.90
2018-06-01T08:36:35.681Z,22.90
2018-06-01T08:41:38.178Z,22.90
2018-06-01T08:46:40.680Z,22.90
2018-06-01T08:51:43.163Z,22.70
2018-06-01T08:56:45.643Z,22.60
2018-06-01T09:01:48.136Z,22.50
2018-06-01T09:06:50.637Z,22.80
2018-06-01T09:11:53.182Z,22.60
2018-06-01T09:16:55.758Z,22.60
2018-06-01T09:21:59.026Z,22.50
2018-06-01T09:27:01.508Z,22.60
2018-06-01T09:32:03.997Z,22.60
2018-06-01T09:37:06.493Z,22.80
2018-06-01T09:42:08.998Z,22.80
2018-06-01T09:47:11.548Z,22.80
2018-06-01T09:52:14.808Z,22.90
2018-06-01T09:57:17.292Z,22.90
2018-06-01T10:02:19.777Z,22.70
2018-06-01T10:07:22.265Z,22.70
2018-06-01T10:12:24.763Z,23.10
2018-06-01T10:17:27.972Z,23.20
2018-06-01T10:22:30.460Z,23.30
2018-06-01T10:27:33.467Z,23.30
2018-06-01T10:32:35.964Z,23.40
2018-06-01T10:37:38.455Z,23.60
2018-06-01T10:42:40.964Z,23.70
2018-06-01T10:47:43.452Z,23.80
2018-06-01T10:52:45.949Z,23.90
2018-06-01T10:57:48.430Z,24.00
2018-06-01T11:02:50.920Z,24.10
2018-06-01T11:07:54.311Z,24.10
2018-06-01T11:12:56.807Z,24.30
2018-06-01T11:17:59.316Z,24.40
2018-06-01T11:23:01.816Z,24.50
2018-06-01T11:28:04.310Z,24.50
2018-06-01T11:33:06.808Z,24.50
2018-06-01T11:38:09.309Z,24.60
2018-06-01T11:43:11.800Z,24.60
2018-06-01T11:48:14.305Z,24.70
2018-06-01T11:53:16.807Z,24.80
2018-06-01T11:58:19.319Z,24.80
2018-06-01T12:03:22.568Z,24.80
2018-06-01T12:08:25.068Z,24.80
2018-06-01T12:13:27.556Z,24.90
2018-06-01T12:18:30.040Z,25.20
2018-06-01T12:23:32.536Z,25.10
2018-06-01T12:28:35.027Z,25.20
2018-06-01T12:33:37.523Z,25.30
2018-06-01T12:38:40.031Z,25.30
2018-06-01T12:43:42.532Z,25.30
2018-06-01T12:48:45.035Z,25.40
2018-06-01T12:53:47.532Z,25.40
2018-06-01T12:58:50.043Z,25.50
2018-06-01T13:03:53.344Z,26.10
2018-06-01T13:08:58.372Z,26.20
2018-06-01T13:14:00.856Z,26.20
2018-06-01T13:19:03.364Z,26.20
2018-06-01T13:24:05.860Z,26.10
2018-06-01T13:29:08.349Z,26.00
2018-06-01T13:34:10.866Z,26.00
2018-06-01T13:39:13.387Z,25.90
2018-06-01T13:44:16.641Z,25.70
2018-06-01T13:49:19.140Z,25.70
2018-06-01T13:54:21.690Z,25.60
2018-06-01T13:59:25.020Z,25.60
2018-06-01T14:04:27.509Z,25.60
2018-06-01T14:09:29.988Z,25.50
2018-06-01T14:14:33.265Z,25.20
2018-06-01T14:19:37.116Z,25.20
2018-06-01T14:24:40.367Z,25.10
2018-06-01T14:29:42.865Z,25.10
2018-06-01T14:34:45.355Z,25.10
2018-06-01T14:39:47.878Z,25.10
2018-06-01T14:44:50.364Z,25.10
2018-06-01T14:49:52.847Z,25.00
2018-06-01T16:19:28.277Z,24.80
2018-06-01T16:24:30.787Z,24.80
2018-06-01T16:29:34.044Z,25.30
2018-06-01T16:34:37.292Z,25.50
2018-06-01T16:39:39.775Z,25.50
2018-06-01T16:44:42.983Z,25.50
2018-06-01T16:49:45.491Z,25.60
2018-06-01T16:54:47.996Z,25.50
2018-06-01T16:59:50.480Z,25.50
2018-06-01T17:04:52.972Z,25.50
2018-06-01T17:09:55.473Z,25.40
2018-06-01T17:14:57.971Z,25.40
2018-06-01T17:20:00.451Z,25.30
2018-06-01T17:25:02.950Z,25.20
2018-06-01T17:30:05.445Z,25.20
2018-06-01T17:35:07.936Z,25.10
2018-06-01T17:40:10.431Z,25.00
2018-06-01T17:45:12.925Z,24.90
2018-06-01T17:50:15.408Z,24.90
2018-06-01T17:55:17.929Z,24.90
2018-06-01T18:00:20.421Z,24.90
2018-06-01T18:05:22.913Z,24.80
2018-06-01T18:10:25.406Z,24.70
2018-06-01T18:15:28.035Z,24.70
2018-06-01T18:20:31.304Z,24.60
2018-06-01T18:25:33.828Z,24.60
2018-06-01T18:30:36.312Z,24.50
2018-06-01T18:35:38.813Z,24.40
2018-06-01T18:40:41.295Z,24.40
2018-06-01T18:45:43.784Z,24.40
2018-06-01T18:50:46.276Z,24.40
2018-06-01T18:55:48.780Z,24.30
2018-06-01T19:00:51.264Z,24.30
2018-06-01T19:05:53.751Z,24.20
2018-06-01T19:10:56.250Z,24.30
2018-06-01T19:15:58.761Z,24.20
2018-06-01T19:21:01.263Z,24.20
2018-06-01T19:26:04.537Z,24.10
2018-06-01T19:31:07.062Z,24.10
2018-06-01T19:36:09.559Z,24.10
2018-06-01T19:41:12.825Z,24.00
2018-06-01T19:46:15.328Z,24.00
2018-06-01T19:51:17.827Z,24.00
2018-06-01T19:56:20.326Z,23.90
2018-06-01T20:01:22.819Z,23.90
2018-06-01T20:06:25.319Z,23.80
2018-06-01T20:11:27.827Z,23.80
2018-06-01T20:16:30.328Z,23.80
2018-06-01T20:21:32.850Z,23.70
2018-06-01T20:26:35.372Z,23.60
2018-06-01T20:31:37.868Z,23.60
2018-06-01T20:36:40.369Z,23.50
2018-06-01T20:41:42.883Z,23.50
2018-06-01T20:46:45.376Z,23.40
2018-06-01T20:51:47.893Z,23.40
2018-06-01T20:56:51.168Z,23.40
2018-06-01T21:01:53.680Z,23.40
2018-06-01T21:06:56.191Z,23.30
2018-06-01T21:11:59.460Z,23.30
2018-06-01T21:17:01.956Z,23.30
2018-06-01T21:22:04.481Z,23.30
2018-06-01T21:27:06.971Z,23.20
2018-06-01T21:32:09.466Z,23.20
2018-06-01T21:37:11.991Z,23.20
2018-06-01T21:42:14.496Z,23.10
2018-06-01T21:47:16.992Z,22.70
2018-06-01T21:52:19.489Z,22.70
2018-06-01T21:57:22.216Z,23.10
2018-06-01T22:02:24.713Z,23.00
2018-06-01T22:07:27.227Z,22.80
2018-06-01T22:12:30.487Z,23.00
2018-06-01T22:17:32.996Z,22.80
2018-06-01T22:22:35.497Z,22.60
2018-06-01T22:27:38.000Z,22.60
2018-06-01T22:32:40.500Z,22.90
2018-06-01T22:37:43.005Z,22.80
2018-06-01T22:42:45.535Z,22.80
2018-06-01T22:47:48.028Z,23.10
2018-06-01T22:52:50.549Z,22.60
2018-06-01T22:57:53.041Z,22.70
2018-06-01T23:02:55.561Z,22.40
2018-06-01T23:07:58.075Z,22.70
2018-06-01T23:13:00.576Z,22.60
2018-06-01T23:18:03.856Z,22.60
2018-06-01T23:23:06.370Z,22.60
2018-06-01T23:28:08.865Z,22.70
2018-06-01T23:33:12.141Z,22.40
2018-06-01T23:38:14.648Z,22.50
2018-06-01T23:43:17.148Z,22.50
2018-06-01T23:48:19.655Z,22.40
2018-06-01T23:53:22.184Z,22.30
2018-06-01T23:58:24.688Z,22.50
